Time;durP1;ratioP1;P1;durP2;ratioP2;P2;SDS_P1;SDS_P2;PMS_P1;PMS_P2;Temp;Humidity;BMP_temperature;BMP_pressure;BME280_temperature;BME280_humidity;BME280_pressure;Samples;Min_cycle;Max_cycle;Signal;HPM_P1;HPM_P2
2022/11/19 00:01:48;;;;;;;;;;;;;;;7.42;100.00;98163.13;5058136;28;19928;-42
2022/11/19 00:04:13;;;;;;;;;;;;;;;7.26;100.00;98160.22;5059229;28;19927;-42
2022/11/19 00:06:38;;;;;;;;;;;;;;;7.22;100.00;98150.13;5037967;28;19920;-42
2022/11/19 00:09:04;;;;;;;;;;;;;;;7.76;100.00;98156.88;5040959;28;19920;-42
2022/11/19 00:14:13;;;;;;;;;;;;;;;6.98;100.00;98157.72;5060887;28;19926;-42
2022/11/19 00:16:39;;;;;;;;;;;;;;;6.74;100.00;98168.69;5024076;28;19924;-42
2022/11/19 00:19:04;;;;;;;;;;;;;;;7.28;100.00;98170.44;5009903;28;19921;-42
2022/11/19 00:21:30;;;;;;;;;;;;;;;7.90;100.00;98158.97;5058817;28;19952;-42
2022/11/19 00:23:55;;;;;;;;;;;;;;;6.79;100.00;98169.38;5058138;28;19985;-42
2022/11/19 00:26:20;;;;;;;;;;;;;;;7.39;100.00;98165.81;5059072;28;19966;-42
2022/11/19 00:28:45;;;;;;;;;;;;;;;6.97;100.00;98158.56;5041674;28;19916;-42
2022/11/19 00:31:11;;;;;;;;;;;;;;;6.04;100.00;98168.09;5041404;28;19921;-42
2022/11/19 00:33:37;;;;;;;;;;;;;;;6.81;100.00;98165.06;5056755;28;19931;-42
2022/11/19 00:36:03;;;;;;;;;;;;;;;6.69;100.00;98172.22;5040851;28;19916;-42
2022/11/19 00:38:28;;;;;;;;;;;;;;;6.35;100.00;98182.56;5024079;28;20743;-42
2022/11/19 00:40:54;;;;;;;;;;;;;;;6.53;100.00;98186.34;5059244;28;19920;-42
2022/11/19 00:46:03;;;;;;;;;;;;;;;6.39;100.00;98194.41;5042285;28;19967;-42
2022/11/19 00:48:29;;;;;;;;;;;;;;;6.54;100.00;98180.31;5024703;28;19986;-42
2022/11/19 00:50:54;;;;;;;;;;;;;;;6.24;100.00;98182.03;5022710;28;19923;-42
2022/11/19 00:53:19;;;;;;;;;;;;;;;7.17;100.00;98172.50;5057364;28;20354;-42
2022/11/19 00:55:44;;;;;;;;;;;;;;;7.16;100.00;98165.69;5058962;28;20346;-42
2022/11/19 00:58:10;;;;;;;;;;;;;;;6.57;100.00;98172.59;5058515;28;19928;-42
2022/11/19 01:00:36;;;;;;;;;;;;;;;6.33;100.00;98191.19;5056899;28;19928;-42
2022/11/19 01:03:02;;;;;;;;;;;;;;;6.00;100.00;98201.44;5058298;28;19975;-42
2022/11/19 01:05:27;;;;;;;;;;;;;;;7.13;100.00;98198.16;5057807;28;19956;-42
2022/11/19 01:07:53;;;;;;;;;;;;;;;6.03;100.00;98191.13;5058236;28;19967;-42
2022/11/19 01:10:19;;;;;;;;;;;;;;;6.47;100.00;98201.84;5056367;28;20431;-42
2022/11/19 01:15:28;;;;;;;;;;;;;;;5.59;100.00;98205.88;5058278;28;19926;-42
2022/11/19 01:17:53;;;;;;;;;;;;;;;6.48;100.00;98213.78;5039078;28;19920;-42
2022/11/19 01:20:19;;;;;;;;;;;;;;;6.76;100.00;98200.19;5037870;28;20027;-42
2022/11/19 01:22:45;;;;;;;;;;;;;;;5.43;100.00;98201.13;5040355;28;19926;-42
2022/11/19 01:25:10;;;;;;;;;;;;;;;6.85;100.00;98205.03;5058953;28;19965;-42
2022/11/19 01:27:36;;;;;;;;;;;;;;;5.91;100.00;98196.53;5059168;28;20007;-42
2022/11/19 01:30:01;;;;;;;;;;;;;;;6.34;100.00;98208.19;5056845;28;19960;-42
2022/11/19 01:32:26;;;;;;;;;;;;;;;6.33;100.00;98211.63;5058861;28;20003;-42
2022/11/19 01:34:52;;;;;;;;;;;;;;;6.49;100.00;98215.44;5055979;28;19966;-42
2022/11/19 01:37:17;;;;;;;;;;;;;;;6.36;100.00;98211.53;5058286;28;19999;-42
2022/11/19 01:39:42;;;;;;;;;;;;;;;5.86;100.00;98215.38;5058492;28;19913;-42
2022/11/19 01:42:48;;;;;;;;;;;;;;;6.83;100.00;98219.59;5056563;28;19927;-42
2022/11/19 01:44:59;;;;;;;;;;;;;;;6.88;100.00;98210.03;5043812;28;20011;-42
2022/11/19 01:47:25;;;;;;;;;;;;;;;6.28;100.00;98206.66;5028896;28;19916;-42
2022/11/19 01:49:50;;;;;;;;;;;;;;;5.94;100.00;98212.66;5061221;28;19939;-42
2022/11/19 01:52:15;;;;;;;;;;;;;;;6.62;100.00;98221.88;5033714;28;20412;-42
2022/11/19 01:54:43;;;;;;;;;;;;;;;6.56;100.00;98221.22;5062511;28;19916;-42
2022/11/19 01:57:09;;;;;;;;;;;;;;;5.64;100.00;98214.25;5061848;28;19927;-42
2022/11/19 01:59:34;;;;;;;;;;;;;;;6.43;100.00;98236.91;5043452;28;19921;-42
2022/11/19 02:02:00;;;;;;;;;;;;;;;6.03;100.00;98239.69;5043204;28;19916;-42
2022/11/19 02:04:25;;;;;;;;;;;;;;;6.04;100.00;98237.09;5062288;28;19920;-42
2022/11/19 02:06:51;;;;;;;;;;;;;;;6.43;100.00;98248.84;5025241;28;20376;-42
2022/11/19 02:09:16;;;;;;;;;;;;;;;5.98;100.00;98249.22;5042533;28;19920;-42
2022/11/19 02:12:00;;;;;;;;;;;;;;;6.30;100.00;98244.97;5042895;28;20003;-42
2022/11/19 02:14:44;;;;;;;;;;;;;;;5.85;100.00;98248.63;5059266;28;20890;-42
2022/11/19 02:17:17;;;;;;;;;;;;;;;6.17;100.00;98249.56;5062121;28;19927;-42
2022/11/19 02:19:45;;;;;;;;;;;;;;;6.27;100.00;98256.94;5043145;28;20411;-42
2022/11/19 02:22:28;;;;;;;;;;;;;;;6.53;100.00;98257.13;5061969;28;19931;-42
2022/11/19 02:24:54;;;;;;;;;;;;;;;5.56;100.00;98249.34;5061009;28;19917;-42
2022/11/19 02:27:25;;;;;;;;;;;;;;;5.39;100.00;98259.97;5049289;28;20381;-42
2022/11/19 02:30:00;;;;;;;;;;;;;;;5.95;100.00;98260.31;5034083;28;20526;-42
2022/11/19 02:32:45;;;;;;;;;;;;;;;6.23;100.00;98257.91;5028032;28;19928;-42
2022/11/19 02:35:11;;;;;;;;;;;;;;;5.50;100.00;98257.16;5041516;28;20369;-42
2022/11/19 02:37:41;;;;;;;;;;;;;;;5.45;100.00;98265.78;5041958;28;20019;-42
2022/11/19 02:40:08;;;;;;;;;;;;;;;5.66;100.00;98263.59;5061317;28;20545;-42
2022/11/19 02:42:36;;;;;;;;;;;;;;;5.95;100.00;98254.38;5061636;28;20035;-42
2022/11/19 02:45:05;;;;;;;;;;;;;;;6.33;100.00;98252.56;5042683;28;19990;-42
2022/11/19 02:47:35;;;;;;;;;;;;;;;6.24;100.00;98257.00;5042898;28;19912;-42
2022/11/19 02:50:06;;;;;;;;;;;;;;;6.97;100.00;98252.44;5025842;28;20011;-42
2022/11/19 02:52:32;;;;;;;;;;;;;;;6.03;100.00;98247.38;5060181;28;19916;-42
2022/11/19 02:54:57;;;;;;;;;;;;;;;5.73;100.00;98248.94;5042221;28;19928;-42
2022/11/19 02:57:22;;;;;;;;;;;;;;;5.17;100.00;98257.03;5058970;28;19924;-42
2022/11/19 03:05:27;;;;;;;;;;;;;;;6.59;100.00;98241.59;5058949;28;20363;-43
2022/11/19 03:07:52;;;;;;;;;;;;;;;5.14;100.00;98244.38;5058917;28;19929;-42
2022/11/19 03:10:18;;;;;;;;;;;;;;;5.21;100.00;98249.28;5060585;28;19966;-42
2022/11/19 03:12:49;;;;;;;;;;;;;;;5.91;100.00;98255.28;5059811;28;19916;-42
2022/11/19 03:18:21;;;;;;;;;;;;;;;7.06;100.00;98229.97;5042874;28;19934;-41
2022/11/19 03:20:59;;;;;;;;;;;;;;;6.37;100.00;98220.91;5061522;28;19916;-41
2022/11/19 03:23:32;;;;;;;;;;;;;;;6.30;100.00;98229.63;5060352;28;19927;-41
2022/11/19 03:26:00;;;;;;;;;;;;;;;5.32;100.00;98238.84;5041557;28;20013;-41
2022/11/19 03:28:29;;;;;;;;;;;;;;;4.89;100.00;98260.19;5041435;28;20413;-41
2022/11/19 03:30:54;;;;;;;;;;;;;;;5.65;100.00;98256.78;5041677;28;19920;-41
2022/11/19 03:33:32;;;;;;;;;;;;;;;5.29;100.00;98253.38;5040614;28;19943;-42
2022/11/19 03:36:00;;;;;;;;;;;;;;;5.98;100.00;98254.31;5058822;28;19974;-42
2022/11/19 03:38:30;;;;;;;;;;;;;;;5.16;100.00;98255.38;5041497;28;19972;-42
2022/11/19 03:40:55;;;;;;;;;;;;;;;5.86;100.00;98256.28;5041778;28;19931;-42
2022/11/19 03:43:20;;;;;;;;;;;;;;;4.64;100.00;98261.56;5041346;28;20465;-42
2022/11/19 03:45:46;;;;;;;;;;;;;;;5.55;100.00;98268.09;5039907;28;19921;-42
2022/11/19 03:48:12;;;;;;;;;;;;;;;5.16;100.00;98276.63;5041319;28;20008;-42
2022/11/19 03:50:47;;;;;;;;;;;;;;;5.19;100.00;98265.50;5059796;28;19912;-42
2022/11/19 03:53:12;;;;;;;;;;;;;;;5.55;100.00;98265.56;5039231;28;19924;-42
2022/11/19 03:55:58;;;;;;;;;;;;;;;5.15;100.00;98266.44;5039671;28;19926;-42
2022/11/19 03:58:24;;;;;;;;;;;;;;;6.08;100.00;98265.97;5047287;28;20656;-42
2022/11/19 04:00:49;;;;;;;;;;;;;;;5.81;100.00;98267.47;5041422;28;19920;-42
2022/11/19 04:03:14;;;;;;;;;;;;;;;5.90;100.00;98258.75;5058985;28;19986;-42
2022/11/19 04:05:40;;;;;;;;;;;;;;;5.85;100.00;98254.56;5041889;28;19920;-42
2022/11/19 04:08:05;;;;;;;;;;;;;;;6.22;100.00;98271.56;5056856;28;19925;-42
2022/11/19 04:10:30;;;;;;;;;;;;;;;5.90;100.00;98263.84;5041436;28;19924;-42
2022/11/19 04:12:55;;;;;;;;;;;;;;;5.73;100.00;98274.50;5058630;28;19920;-42
2022/11/19 04:15:21;;;;;;;;;;;;;;;5.72;100.00;98277.91;5058622;28;19920;-42
2022/11/19 04:17:46;;;;;;;;;;;;;;;5.99;100.00;98281.53;5057987;28;20448;-42
2022/11/19 04:20:11;;;;;;;;;;;;;;;5.41;100.00;98287.13;5057397;28;20383;-42
2022/11/19 04:22:36;;;;;;;;;;;;;;;5.57;100.00;98294.44;5058063;28;19920;-42
2022/11/19 04:25:02;;;;;;;;;;;;;;;5.67;100.00;98285.69;5039571;28;19995;-42
2022/11/19 04:27:27;;;;;;;;;;;;;;;4.97;100.00;98294.06;5057765;28;19920;-42
2022/11/19 04:29:52;;;;;;;;;;;;;;;5.13;100.00;98303.91;5056995;28;20370;-42
2022/11/19 04:32:17;;;;;;;;;;;;;;;5.71;100.00;98305.19;5058947;28;19930;-42
2022/11/19 04:34:42;;;;;;;;;;;;;;;4.58;100.00;98310.97;5057876;28;19999;-42
2022/11/19 04:37:08;;;;;;;;;;;;;;;4.77;100.00;98316.56;5041291;28;20017;-42
2022/11/19 04:39:33;;;;;;;;;;;;;;;5.08;100.00;98323.59;5056351;28;19921;-42
2022/11/19 04:41:58;;;;;;;;;;;;;;;5.52;100.00;98321.78;5057841;28;19931;-42
2022/11/19 04:44:23;;;;;;;;;;;;;;;5.15;100.00;98307.28;5057587;28;20400;-42
2022/11/19 04:46:49;;;;;;;;;;;;;;;5.63;100.00;98309.63;5058986;28;19920;-42
2022/11/19 04:49:14;;;;;;;;;;;;;;;5.33;100.00;98311.97;5056811;28;20376;-42
2022/11/19 04:51:39;;;;;;;;;;;;;;;5.23;100.00;98315.63;5057677;28;20829;-42
2022/11/19 04:54:07;;;;;;;;;;;;;;;4.36;100.00;98315.66;5040212;28;19931;-42
2022/11/19 04:56:32;;;;;;;;;;;;;;;5.54;100.00;98315.81;5057960;28;20018;-42
2022/11/19 04:58:57;;;;;;;;;;;;;;;4.24;100.00;98326.03;5057206;28;19925;-41
2022/11/19 05:01:23;;;;;;;;;;;;;;;4.56;100.00;98333.97;5058289;28;20961;-42
2022/11/19 05:03:48;;;;;;;;;;;;;;;4.98;100.00;98328.91;5058004;28;20437;-41
2022/11/19 05:06:13;;;;;;;;;;;;;;;4.60;100.00;98325.38;5058243;28;20079;-42
2022/11/19 05:08:38;;;;;;;;;;;;;;;5.09;100.00;98322.75;5056426;28;19963;-41
2022/11/19 05:11:04;;;;;;;;;;;;;;;4.67;100.00;98330.38;5057850;28;19926;-42
2022/11/19 05:13:29;;;;;;;;;;;;;;;4.16;100.00;98333.81;5055794;28;19927;-41
2022/11/19 05:15:54;;;;;;;;;;;;;;;4.80;100.00;98337.75;5039808;28;19920;-42
2022/11/19 05:18:19;;;;;;;;;;;;;;;4.23;100.00;98344.75;5056046;28;20671;-42
2022/11/19 05:20:45;;;;;;;;;;;;;;;3.74;100.00;98352.31;5057811;28;20353;-42
2022/11/19 05:23:11;;;;;;;;;;;;;;;5.01;100.00;98349.22;5040070;28;19920;-42
2022/11/19 05:25:36;;;;;;;;;;;;;;;4.90;100.00;98343.50;5056553;28;19926;-42
2022/11/19 05:28:02;;;;;;;;;;;;;;;4.29;100.00;98354.81;5039979;28;20023;-41
2022/11/19 05:30:27;;;;;;;;;;;;;;;4.28;100.00;98376.94;5057052;28;20885;-42
2022/11/19 05:32:52;;;;;;;;;;;;;;;4.42;100.00;98370.75;5038711;28;19921;-41
2022/11/19 05:35:17;;;;;;;;;;;;;;;4.57;100.00;98380.69;5056551;28;19920;-41
2022/11/19 05:37:42;;;;;;;;;;;;;;;4.05;100.00;98377.31;5057086;28;19928;-41
2022/11/19 05:40:08;;;;;;;;;;;;;;;4.06;100.00;98389.19;5039627;28;19920;-41
2022/11/19 05:42:33;;;;;;;;;;;;;;;3.85;100.00;98399.69;5040424;28;19963;-41
2022/11/19 05:44:59;;;;;;;;;;;;;;;4.53;100.00;98397.75;5057407;28;20393;-41
2022/11/19 05:47:24;;;;;;;;;;;;;;;3.38;100.00;98394.41;5057554;28;21229;-41
2022/11/19 05:49:49;;;;;;;;;;;;;;;3.70;100.00;98406.69;5039281;28;20404;-41
2022/11/19 05:52:14;;;;;;;;;;;;;;;3.51;100.00;98405.25;5056051;28;19955;-41
2022/11/19 05:54:40;;;;;;;;;;;;;;;3.07;100.00;98410.03;5057028;28;19920;-41
2022/11/19 05:57:05;;;;;;;;;;;;;;;4.45;100.00;98412.34;5056529;28;19928;-41
2022/11/19 05:59:30;;;;;;;;;;;;;;;4.27;100.00;98405.03;5057727;28;20371;-41
2022/11/19 06:01:56;;;;;;;;;;;;;;;5.26;100.00;98397.25;5039277;28;19920;-41
2022/11/19 06:04:21;;;;;;;;;;;;;;;3.86;100.00;98392.03;5058254;28;19931;-41
2022/11/19 06:06:46;;;;;;;;;;;;;;;3.49;100.00;98394.25;5039311;28;20381;-41
2022/11/19 06:09:11;;;;;;;;;;;;;;;3.70;100.00;98416.88;5056048;28;20343;-42
2022/11/19 06:11:49;;;;;;;;;;;;;;;4.64;100.00;98417.13;5055696;28;19920;-42
2022/11/19 06:14:20;;;;;;;;;;;;;;;5.24;100.00;98398.97;5057789;28;20389;-41
2022/11/19 06:16:46;;;;;;;;;;;;;;;4.64;100.00;98406.94;5054710;28;20684;-42
2022/11/19 06:19:11;;;;;;;;;;;;;;;3.75;100.00;98407.47;5054894;28;19935;-42
2022/11/19 06:21:36;;;;;;;;;;;;;;;4.03;100.00;98414.72;5055579;28;20305;-42
2022/11/19 06:24:01;;;;;;;;;;;;;;;5.16;100.00;98411.06;5058348;28;19943;-41
2022/11/19 06:26:27;;;;;;;;;;;;;;;4.02;100.00;98418.13;5056905;28;20296;-41
2022/11/19 06:28:53;;;;;;;;;;;;;;;4.77;100.00;98413.50;5056622;28;19928;-41
2022/11/19 06:31:18;;;;;;;;;;;;;;;4.32;100.00;98415.97;5041263;28;19913;-42
2022/11/19 06:33:43;;;;;;;;;;;;;;;3.68;100.00;98413.53;5040933;28;19912;-42
2022/11/19 06:36:09;;;;;;;;;;;;;;;4.86;100.00;98422.69;5061394;28;20349;-42
2022/11/19 06:38:34;;;;;;;;;;;;;;;4.26;100.00;98413.50;5060878;28;19920;-42
2022/11/19 06:40:59;;;;;;;;;;;;;;;4.40;100.00;98429.41;5060401;28;19920;-42
2022/11/19 06:43:24;;;;;;;;;;;;;;;4.06;100.00;98419.78;5060840;28;19974;-42
2022/11/19 06:45:50;;;;;;;;;;;;;;;4.19;100.00;98421.25;5061507;28;19916;-42
2022/11/19 06:48:15;;;;;;;;;;;;;;;4.58;100.00;98424.03;5061061;28;20317;-42
2022/11/19 06:50:40;;;;;;;;;;;;;;;4.55;100.00;98418.97;5059027;28;19932;-42
2022/11/19 06:53:05;;;;;;;;;;;;;;;4.12;100.00;98424.75;5040531;28;20630;-42
2022/11/19 06:55:31;;;;;;;;;;;;;;;3.87;100.00;98428.53;5060360;28;19965;-42
2022/11/19 06:58:00;;;;;;;;;;;;;;;4.05;100.00;98423.16;5061568;28;19920;-42
2022/11/19 07:00:25;;;;;;;;;;;;;;;4.44;100.00;98431.06;5060418;28;19917;-42
2022/11/19 07:02:50;;;;;;;;;;;;;;;4.45;100.00;98435.31;5061556;28;20389;-42
2022/11/19 07:05:15;;;;;;;;;;;;;;;4.34;100.00;98427.81;5059672;28;20375;-41
2022/11/19 07:07:41;;;;;;;;;;;;;;;3.72;100.00;98424.53;5061344;28;20024;-42
2022/11/19 07:10:06;;;;;;;;;;;;;;;4.00;100.00;98434.31;5041689;28;19916;-42
2022/11/19 07:12:31;;;;;;;;;;;;;;;4.82;100.00;98425.28;5060689;28;20421;-42
2022/11/19 07:14:57;;;;;;;;;;;;;;;4.48;100.00;98430.16;5058292;28;19920;-42
2022/11/19 07:17:22;;;;;;;;;;;;;;;3.82;100.00;98430.31;5060662;28;19920;-42
2022/11/19 07:19:47;;;;;;;;;;;;;;;4.22;100.00;98419.50;5060419;28;19932;-41
2022/11/19 07:22:13;;;;;;;;;;;;;;;3.87;100.00;98420.91;5061464;28;19916;-41
2022/11/19 07:24:38;;;;;;;;;;;;;;;3.65;100.00;98431.41;5060585;28;19916;-42
2022/11/19 07:27:03;;;;;;;;;;;;;;;4.49;100.00;98433.53;5060316;28;19916;-42
2022/11/19 07:29:29;;;;;;;;;;;;;;;3.80;100.00;98430.31;5060129;28;20004;-41
2022/11/19 07:31:54;;;;;;;;;;;;;;;2.77;100.00;98446.81;5061157;28;19952;-41
2022/11/19 07:34:19;;;;;;;;;;;;;;;4.11;100.00;98448.56;5054991;28;19924;-41
2022/11/19 07:36:45;;;;;;;;;;;;;;;3.65;100.00;98458.53;5054117;28;19925;-41
2022/11/19 07:39:10;;;;;;;;;;;;;;;3.01;100.00;98455.03;5056835;28;20493;-41
2022/11/19 07:44:19;;;;;;;;;;;;;;;2.82;100.00;98469.66;5056542;28;19928;-42
2022/11/19 07:46:44;;;;;;;;;;;;;;;3.07;100.00;98470.25;5058951;28;19920;-42
2022/11/19 07:49:09;;;;;;;;;;;;;;;3.18;100.00;98467.59;5059341;28;19960;-42
2022/11/19 07:51:35;;;;;;;;;;;;;;;3.13;100.00;98475.28;5023901;28;19977;-42
2022/11/19 07:54:00;;;;;;;;;;;;;;;2.72;100.00;98481.59;5061127;28;19916;-42
2022/11/19 07:56:25;;;;;;;;;;;;;;;3.61;100.00;98480.66;5058875;28;19928;-42
2022/11/19 07:58:50;;;;;;;;;;;;;;;3.28;100.00;98475.09;5057421;28;20369;-42
2022/11/19 08:01:17;;;;;;;;;;;;;;;3.15;100.00;98483.75;5059652;28;19923;-42
2022/11/19 08:03:45;;;;;;;;;;;;;;;3.13;100.00;98495.63;5058752;28;19927;-42
2022/11/19 08:06:10;;;;;;;;;;;;;;;3.32;100.00;98488.63;5059715;28;19921;-42
2022/11/19 08:08:35;;;;;;;;;;;;;;;2.86;100.00;98492.50;5055776;28;20608;-42
2022/11/19 08:11:04;;;;;;;;;;;;;;;3.83;100.00;98491.44;5059269;28;19934;-42
2022/11/19 08:13:30;;;;;;;;;;;;;;;3.46;100.00;98468.94;5040437;28;20400;-42
2022/11/19 08:15:58;;;;;;;;;;;;;;;3.48;100.00;98487.59;5041350;28;19925;-42
2022/11/19 08:18:24;;;;;;;;;;;;;;;4.00;100.00;98491.19;5056664;28;20378;-42
2022/11/19 08:20:49;;;;;;;;;;;;;;;3.30;100.00;98488.66;5058239;28;19920;-42
2022/11/19 08:23:14;;;;;;;;;;;;;;;3.23;100.00;98486.19;5058314;28;20584;-41
2022/11/19 08:25:41;;;;;;;;;;;;;;;4.24;100.00;98490.00;5058505;28;20439;-41
2022/11/19 08:28:06;;;;;;;;;;;;;;;4.34;100.00;98485.63;5057460;28;19924;-41
2022/11/19 08:30:32;;;;;;;;;;;;;;;4.27;100.00;98474.66;5022764;28;20297;-42
2022/11/19 08:32:57;;;;;;;;;;;;;;;4.35;100.00;98482.19;5058716;28;19999;-41
2022/11/19 08:35:23;;;;;;;;;;;;;;;3.81;100.00;98490.59;5059085;28;19924;-41
2022/11/19 08:37:48;;;;;;;;;;;;;;;3.14;100.00;98498.16;5057369;28;20584;-41
2022/11/19 08:40:13;;;;;;;;;;;;;;;3.57;100.00;98491.75;5056633;28;20336;-41
2022/11/19 08:45:23;;;;;;;;;;;;;;;3.77;100.00;98484.69;5059789;28;20332;-41
2022/11/19 08:47:48;;;;;;;;;;;;;;;4.29;100.00;98479.72;5055251;28;19916;-41
2022/11/19 08:50:13;;;;;;;;;;;;;;;4.22;100.00;98470.50;5057517;28;19916;-41
2022/11/19 08:52:39;;;;;;;;;;;;;;;4.51;100.00;98473.44;5056380;28;19924;-41
2022/11/19 08:55:04;;;;;;;;;;;;;;;3.56;100.00;98480.72;5057624;28;19927;-42
2022/11/19 08:57:29;;;;;;;;;;;;;;;3.20;100.00;98491.34;5056563;28;19924;-41
2022/11/19 08:59:55;;;;;;;;;;;;;;;3.46;100.00;98498.66;5053393;28;20932;-42
2022/11/19 09:02:20;;;;;;;;;;;;;;;3.47;100.00;98502.91;5057429;28;20273;-41
2022/11/19 09:04:45;;;;;;;;;;;;;;;3.77;100.00;98494.88;5059056;28;19924;-42
2022/11/19 09:07:10;;;;;;;;;;;;;;;4.71;100.00;98490.13;5056524;28;19920;-41
2022/11/19 09:09:36;;;;;;;;;;;;;;;3.93;100.00;98492.16;5055653;28;19924;-41
2022/11/19 09:12:01;;;;;;;;;;;;;;;3.58;100.00;98487.50;5056623;28;19934;-42
2022/11/19 09:14:26;;;;;;;;;;;;;;;3.82;100.00;98494.81;5058751;28;20057;-42
2022/11/19 09:16:51;;;;;;;;;;;;;;;4.48;100.00;98486.25;5058164;28;20285;-42
2022/11/19 09:19:17;;;;;;;;;;;;;;;4.15;100.00;98493.53;5049156;28;19929;-42
2022/11/19 09:21:42;;;;;;;;;;;;;;;3.37;100.00;98503.84;5058036;28;19973;-41
2022/11/19 09:24:07;;;;;;;;;;;;;;;3.90;100.00;98504.91;5057865;28;19913;-41
2022/11/19 09:26:32;;;;;;;;;;;;;;;4.27;100.00;98504.41;5039825;28;20313;-41
2022/11/19 09:28:57;;;;;;;;;;;;;;;3.88;100.00;98501.56;5054762;28;20006;-41
2022/11/19 09:31:23;;;;;;;;;;;;;;;3.71;100.00;98494.13;5056201;28;20070;-41
2022/11/19 09:33:50;;;;;;;;;;;;;;;4.36;100.00;98505.13;5054617;28;20069;-41
2022/11/19 09:36:16;;;;;;;;;;;;;;;4.73;100.00;98490.94;5056715;28;20843;-41
2022/11/19 09:38:42;;;;;;;;;;;;;;;4.53;100.00;98487.00;5055642;28;19929;-41
2022/11/19 09:41:16;;;;;;;;;;;;;;;4.94;100.00;98489.72;5057455;28;19931;-41
2022/11/19 09:43:47;;;;;;;;;;;;;;;4.65;100.00;98493.59;5057345;28;19989;-41
2022/11/19 09:46:16;;;;;;;;;;;;;;;4.95;100.00;98492.28;5039875;28;19920;-42
2022/11/19 09:48:44;;;;;;;;;;;;;;;4.47;100.00;98522.81;5057006;28;19966;-42
2022/11/19 09:51:09;;;;;;;;;;;;;;;4.38;100.00;98522.94;5041498;28;20328;-42
2022/11/19 09:53:38;;;;;;;;;;;;;;;4.96;100.00;98501.59;5056746;28;20132;-42
2022/11/19 09:56:03;;;;;;;;;;;;;;;4.94;100.00;98497.38;5057666;28;19921;-42
2022/11/19 09:58:37;;;;;;;;;;;;;;;4.42;100.00;98513.53;5038300;28;20925;-42
2022/11/19 10:01:02;;;;;;;;;;;;;;;4.95;100.00;98496.50;5057972;28;20377;-42
2022/11/19 10:03:28;;;;;;;;;;;;;;;5.36;100.00;98498.31;5039503;28;19916;-41
2022/11/19 10:05:56;;;;;;;;;;;;;;;5.42;100.00;98495.63;5038725;28;19974;-42
2022/11/19 10:08:34;;;;;;;;;;;;;;;5.75;100.00;98477.97;5059132;28;19920;-42
2022/11/19 10:11:05;;;;;;;;;;;;;;;4.74;100.00;98495.16;5012992;28;20403;-42
2022/11/19 10:13:34;;;;;;;;;;;;;;;4.98;100.00;98504.13;5061689;28;20284;-42
2022/11/19 10:16:18;;;;;;;;;;;;;;;7.06;100.00;98496.25;5042278;28;19924;-42
2022/11/19 10:19:05;;;;;;;;;;;;;;;6.51;100.00;98481.44;5060696;28;20442;-42
2022/11/19 10:21:30;;;;;;;;;;;;;;;6.03;100.00;98495.28;5043908;28;19927;-41
2022/11/19 10:23:59;;;;;;;;;;;;;;;6.11;100.00;98484.88;5053363;28;19916;-42
2022/11/19 10:26:51;;;;;;;;;;;;;;;6.40;100.00;98474.00;5042733;28;20274;-41
2022/11/19 10:29:18;;;;;;;;;;;;;;;6.67;100.00;98491.25;5055674;28;19966;-42
2022/11/19 10:31:44;;;;;;;;;;;;;;;5.90;100.00;98483.63;5033512;28;19921;-40
2022/11/19 10:34:14;;;;;;;;;;;;;;;5.29;100.00;98489.09;5042292;28;19936;-41
2022/11/19 10:36:40;;;;;;;;;;;;;;;6.50;100.00;98493.38;5043060;28;19955;-42
2022/11/19 10:39:08;;;;;;;;;;;;;;;5.81;100.00;98488.03;5061242;28;19972;-42
2022/11/19 10:41:36;;;;;;;;;;;;;;;6.20;100.00;98480.44;5059332;28;19948;-42
2022/11/19 10:44:39;;;;;;;;;;;;;;;5.49;100.00;98475.09;5042221;28;20019;-42
2022/11/19 10:47:24;;;;;;;;;;;;;;;5.37;100.00;98487.22;5028081;28;19986;-42
2022/11/19 10:49:50;;;;;;;;;;;;;;;6.11;100.00;98492.56;5028332;28;19955;-41
2022/11/19 10:52:35;;;;;;;;;;;;;;;6.14;100.00;98480.56;5059773;28;19955;-41
2022/11/19 10:55:11;;;;;;;;;;;;;;;5.59;100.00;98492.78;5043064;28;19927;-42
2022/11/19 10:57:37;;;;;;;;;;;;;;;5.33;100.00;98490.72;5060099;28;19927;-42
2022/11/19 11:00:02;;;;;;;;;;;;;;;6.18;100.00;98492.41;5059887;28;19924;-42
2022/11/19 11:02:55;;;;;;;;;;;;;;;5.23;100.00;98491.75;5042468;28;20006;-43
2022/11/19 11:05:20;;;;;;;;;;;;;;;5.11;100.00;98489.41;5056587;28;19924;-42
2022/11/19 11:07:49;;;;;;;;;;;;;;;5.74;100.00;98496.72;5060507;28;19924;-43
2022/11/19 11:10:25;;;;;;;;;;;;;;;5.69;100.00;98515.56;5060192;28;19923;-43
2022/11/19 11:15:35;;;;;;;;;;;;;;;4.85;100.00;98500.94;5043801;28;19963;-43
2022/11/19 11:18:04;;;;;;;;;;;;;;;5.37;100.00;98502.56;5038980;28;20831;-44
2022/11/19 11:20:29;;;;;;;;;;;;;;;5.19;100.00;98502.91;5059542;28;19928;-43
2022/11/19 11:23:02;;;;;;;;;;;;;;;4.97;100.00;98472.66;5041008;28;20370;-43
2022/11/19 11:25:27;;;;;;;;;;;;;;;6.73;100.00;98491.97;5042180;28;20051;-43
2022/11/19 11:28:13;;;;;;;;;;;;;;;5.69;100.00;98478.09;5042332;28;19916;-43
2022/11/19 11:30:53;;;;;;;;;;;;;;;6.42;100.00;98485.88;5042861;28;19990;-43
2022/11/19 11:33:25;;;;;;;;;;;;;;;5.72;100.00;98472.91;5041482;28;19920;-43
2022/11/19 11:35:51;;;;;;;;;;;;;;;6.20;100.00;98488.09;5049106;28;19948;-43
2022/11/19 11:38:21;;;;;;;;;;;;;;;6.11;100.00;98475.50;5028307;28;20437;-43
2022/11/19 11:41:03;;;;;;;;;;;;;;;7.05;100.00;98491.19;5059206;28;19928;-43
2022/11/19 11:43:28;;;;;;;;;;;;;;;6.31;100.00;98481.88;5054541;28;19928;-43
2022/11/19 11:45:57;;;;;;;;;;;;;;;7.10;100.00;98485.03;5040457;28;19920;-43
2022/11/19 11:48:22;;;;;;;;;;;;;;;6.18;100.00;98487.28;5040858;28;19952;-43
2022/11/19 11:50:47;;;;;;;;;;;;;;;5.97;100.00;98485.19;5051258;28;20437;-43
2022/11/19 11:53:13;;;;;;;;;;;;;;;6.20;100.00;98479.56;5059060;28;20313;-43
2022/11/19 11:55:39;;;;;;;;;;;;;;;7.59;100.00;98464.09;5039788;28;19916;-43
2022/11/19 11:58:05;;;;;;;;;;;;;;;5.71;100.00;98471.22;5058493;28;20440;-43
2022/11/19 12:00:33;;;;;;;;;;;;;;;5.58;100.00;98474.91;5058748;28;19952;-43
2022/11/19 12:02:59;;;;;;;;;;;;;;;6.55;100.00;98472.81;5059780;28;20015;-43
2022/11/19 12:05:24;;;;;;;;;;;;;;;5.44;100.00;98463.25;5059409;28;20003;-43
2022/11/19 12:07:50;;;;;;;;;;;;;;;5.22;100.00;98487.50;5040284;28;20024;-43
2022/11/19 12:10:15;;;;;;;;;;;;;;;4.84;100.00;98486.50;5054726;28;19924;-43
2022/11/19 12:12:49;;;;;;;;;;;;;;;5.78;100.00;98483.00;5056057;28;19974;-44
2022/11/19 12:15:20;;;;;;;;;;;;;;;5.47;100.00;98474.28;5054674;28;20021;-45
2022/11/19 12:17:46;;;;;;;;;;;;;;;5.38;100.00;98490.63;5057216;28;19928;-44
2022/11/19 12:20:11;;;;;;;;;;;;;;;6.28;100.00;98468.28;5055490;28;19923;-44
2022/11/19 12:22:36;;;;;;;;;;;;;;;5.78;100.00;98466.84;5058508;28;19917;-44
2022/11/19 12:25:04;;;;;;;;;;;;;;;6.72;100.00;98477.50;5054637;28;19921;-43
2022/11/19 12:27:44;;;;;;;;;;;;;;;6.77;100.00;98455.19;5060382;28;19921;-42
2022/11/19 12:30:30;;;;;;;;;;;;;;;6.85;100.00;98464.34;5058417;28;19927;-43
2022/11/19 12:32:55;;;;;;;;;;;;;;;5.99;100.00;98481.72;5059289;28;19920;-43
2022/11/19 12:35:42;;;;;;;;;;;;;;;6.22;100.00;98470.16;5057212;28;19928;-43
2022/11/19 12:38:13;;;;;;;;;;;;;;;7.28;100.00;98475.19;5057719;28;19924;-43
2022/11/19 12:40:59;;;;;;;;;;;;;;;5.74;100.00;98486.50;5059563;28;20368;-42
2022/11/19 12:43:28;;;;;;;;;;;;;;;5.70;100.00;98489.97;5055354;28;19978;-42
2022/11/19 12:45:53;;;;;;;;;;;;;;;4.96;100.00;98490.56;5038290;28;20281;-42
2022/11/19 12:48:27;;;;;;;;;;;;;;;5.58;100.00;98506.41;5056736;28;19923;-43
2022/11/19 12:50:55;;;;;;;;;;;;;;;6.60;100.00;98488.88;5057233;28;19927;-43
2022/11/19 12:53:29;;;;;;;;;;;;;;;5.20;100.00;98502.00;5059151;28;19920;-42
2022/11/19 12:55:59;;;;;;;;;;;;;;;4.79;100.00;98503.59;5056952;28;19932;-43
2022/11/19 12:58:43;;;;;;;;;;;;;;;5.05;100.00;98512.53;5040703;28;20346;-43
2022/11/19 13:01:09;;;;;;;;;;;;;;;5.91;100.00;98505.72;5056566;28;19932;-42
2022/11/19 13:03:47;;;;;;;;;;;;;;;4.79;100.00;98518.91;5057511;28;19974;-42
2022/11/19 13:06:13;;;;;;;;;;;;;;;6.08;100.00;98490.91;5054459;28;19920;-42
2022/11/19 13:08:38;;;;;;;;;;;;;;;5.72;100.00;98477.19;5038999;28;19943;-42
2022/11/19 13:11:04;;;;;;;;;;;;;;;5.74;100.00;98485.66;5057218;28;19970;-43
2022/11/19 13:13:29;;;;;;;;;;;;;;;5.92;100.00;98495.50;5057324;28;19920;-44
2022/11/19 13:16:02;;;;;;;;;;;;;;;6.17;100.00;98490.72;5037257;28;19929;-44